Guilford, Kansas
Current Conditions -  °F | °C
As of 3:52 PM on Sunday 21 Dec 2014 (Local Time) from KCNU Reporting Station
Overcast Overcast  
Wind Chill: 40°   Ceiling: 1600
Heat Index: 46°   Visibility: 10mi
Dew Point: 41°   Wind: 13mph
Humidity: 83%   Direction: 160°SSE
Pressure: 29.84"   Gusts: NA
Location:  37.5152°N, 95.6341°W
Report Text: KCNU 212152Z AUTO 16011KT 10SM BKN016 OVC023 08/05 A2984 RMK AO2 SLP106 T00780050
Loading
Personal Weather Stations






























Interactive Weather Map New forecast layout! Learn more

10-Day Weather Forecast

Advertisements
Track Severe Weather on mobile